N928CJ KBOI-KSAN
Flight info
| Callsign | N928CJ |
|---|---|
| Flight time | N/A |
| Altitude | 43000 |
| Route | HYVAL REO/N0479F410 EHF HUULK COMIX2 |
| Aircraft | C700/M-SBDGHM1RWXY/LB2 |
Departure
| Time | N/A |
|---|---|
| Airport | Boise Air Terminal/Gowen Field (KBOI) |
Arrival
| Time | 2026-04-20 05:40 |
|---|---|
| Airport | San Diego International Airport (KSAN) |
| Time | Latitude | Longitude | Altitude | Speed | Heading |
|---|---|---|---|---|---|
| 2026-04-20 03:27 | 39.76373 | -118.38750 | 42875 ft | 452 kts | 191° |
| 2026-04-20 04:27 | 39.76169 | -118.38786 | 42872 ft | 452 kts | 192° |
| 2026-04-20 04:27 | 39.75014 | -118.38989 | 42868 ft | 452 kts | 192° |
| 2026-04-20 04:28 | 39.68817 | -118.40080 | 42876 ft | 452 kts | 192° |
| 2026-04-20 04:28 | 39.62608 | -118.41166 | 42876 ft | 449 kts | 192° |
| 2026-04-20 04:29 | 39.56438 | -118.42248 | 42862 ft | 446 kts | 192° |
| 2026-04-20 04:29 | 39.50289 | -118.43323 | 42875 ft | 447 kts | 192° |
| 2026-04-20 04:30 | 39.44160 | -118.44392 | 42874 ft | 448 kts | 192° |
| 2026-04-20 04:30 | 39.37964 | -118.45472 | 42871 ft | 450 kts | 192° |
| 2026-04-20 04:31 | 39.31763 | -118.46548 | 42863 ft | 449 kts | 192° |
| 2026-04-20 04:31 | 39.25635 | -118.47612 | 42857 ft | 446 kts | 192° |
| 2026-04-20 04:32 | 39.19505 | -118.48674 | 42859 ft | 443 kts | 192° |
| 2026-04-20 04:32 | 39.13368 | -118.49737 | 42860 ft | 448 kts | 192° |
| 2026-04-20 04:33 | 39.07169 | -118.50805 | 42866 ft | 450 kts | 192° |
| 2026-04-20 04:33 | 39.00986 | -118.51870 | 42863 ft | 446 kts | 192° |
| 2026-04-20 04:34 | 38.94896 | -118.52919 | 42860 ft | 444 kts | 192° |
| 2026-04-20 04:34 | 38.88762 | -118.53973 | 42855 ft | 446 kts | 192° |
| 2026-04-20 04:35 | 38.82606 | -118.55025 | 42855 ft | 447 kts | 192° |
| 2026-04-20 04:35 | 38.76428 | -118.56087 | 42858 ft | 449 kts | 192° |
| 2026-04-20 04:36 | 38.67188 | -118.57661 | 42941 ft | 446 kts | 192° |
| 2026-04-20 04:37 | 38.61059 | -118.58706 | 42953 ft | 443 kts | 192° |
| 2026-04-20 04:37 | 38.54940 | -118.59748 | 42956 ft | 445 kts | 192° |
| 2026-04-20 04:38 | 38.48829 | -118.60785 | 42957 ft | 447 kts | 192° |
| 2026-04-20 04:38 | 38.42644 | -118.61834 | 42954 ft | 449 kts | 192° |
| 2026-04-20 04:39 | 38.36466 | -118.62877 | 42928 ft | 446 kts | 192° |
| 2026-04-20 04:39 | 38.30323 | -118.63916 | 42897 ft | 445 kts | 192° |
| 2026-04-20 04:40 | 38.24244 | -118.64940 | 42892 ft | 444 kts | 192° |
| 2026-04-20 04:40 | 38.18080 | -118.65981 | 42879 ft | 448 kts | 192° |
| 2026-04-20 04:41 | 38.11895 | -118.67017 | 42913 ft | 447 kts | 192° |
| 2026-04-20 04:41 | 38.05774 | -118.68044 | 42908 ft | 441 kts | 192° |
| 2026-04-20 04:42 | 37.99679 | -118.69068 | 42904 ft | 444 kts | 192° |
| 2026-04-20 04:42 | 37.93560 | -118.70090 | 42933 ft | 448 kts | 192° |
| 2026-04-20 04:43 | 37.87414 | -118.71114 | 42983 ft | 444 kts | 192° |
| 2026-04-20 04:43 | 37.81317 | -118.72131 | 43027 ft | 440 kts | 192° |
| 2026-04-20 04:44 | 37.75214 | -118.73149 | 43074 ft | 445 kts | 192° |
| 2026-04-20 04:44 | 37.69104 | -118.74161 | 43117 ft | 446 kts | 192° |
| 2026-04-20 04:45 | 37.62964 | -118.75179 | 43124 ft | 444 kts | 192° |
| 2026-04-20 04:45 | 37.56849 | -118.76191 | 43121 ft | 442 kts | 192° |
| 2026-04-20 04:46 | 37.50776 | -118.77192 | 43102 ft | 436 kts | 193° |
| 2026-04-20 04:46 | 37.44772 | -118.78192 | 43081 ft | 443 kts | 192° |
| 2026-04-20 04:47 | 37.38623 | -118.79197 | 43049 ft | 445 kts | 192° |
| 2026-04-20 04:47 | 37.32522 | -118.80201 | 43006 ft | 440 kts | 192° |
| 2026-04-20 04:48 | 37.26455 | -118.81199 | 42972 ft | 441 kts | 192° |
| 2026-04-20 04:48 | 37.20376 | -118.82197 | 42983 ft | 445 kts | 192° |
| 2026-04-20 04:49 | 37.14229 | -118.83200 | 42981 ft | 445 kts | 193° |
| 2026-04-20 04:49 | 37.08083 | -118.84206 | 42983 ft | 445 kts | 193° |
| 2026-04-20 04:50 | 37.01935 | -118.85208 | 42981 ft | 446 kts | 193° |
| 2026-04-20 04:50 | 36.95820 | -118.86204 | 42981 ft | 446 kts | 192° |
| 2026-04-20 04:51 | 36.89672 | -118.87202 | 42977 ft | 444 kts | 192° |
| 2026-04-20 04:51 | 36.83565 | -118.88195 | 42974 ft | 442 kts | 193° |
| 2026-04-20 04:52 | 36.78564 | -118.89007 | 42980 ft | 444 kts | 193° |
| 2026-04-20 04:52 | 36.75056 | -118.89573 | 42966 ft | 445 kts | 192° |
| 2026-04-20 04:53 | 36.73880 | -118.89763 | 42965 ft | 445 kts | 192° |
| 2026-04-20 04:54 | 36.69577 | -118.90460 | 42952 ft | 446 kts | 193° |
| 2026-04-20 04:54 | 36.68330 | -118.90661 | 42953 ft | 447 kts | 192° |
| 2026-04-20 04:55 | 36.63404 | -118.91448 | 42942 ft | 425 kts | 193° |
| 2026-04-20 04:55 | 36.57499 | -118.92415 | 42937 ft | 434 kts | 193° |
| 2026-04-20 04:56 | 36.51433 | -118.93385 | 42936 ft | 445 kts | 192° |
| 2026-04-20 04:56 | 36.45285 | -118.94372 | 42942 ft | 448 kts | 192° |
| 2026-04-20 04:57 | 36.39115 | -118.95362 | 42932 ft | 446 kts | 192° |
| 2026-04-20 04:57 | 36.32984 | -118.96344 | 42932 ft | 443 kts | 192° |
| 2026-04-20 04:58 | 36.26878 | -118.97321 | 42921 ft | 443 kts | 193° |
| 2026-04-20 04:58 | 36.20751 | -118.98301 | 42924 ft | 445 kts | 192° |
| 2026-04-20 04:59 | 36.14628 | -118.99276 | 42927 ft | 448 kts | 192° |
| 2026-04-20 04:59 | 36.08454 | -119.00258 | 42904 ft | 446 kts | 192° |
| 2026-04-20 05:00 | 36.02323 | -119.01232 | 42926 ft | 443 kts | 193° |
| 2026-04-20 05:00 | 35.96221 | -119.02202 | 42910 ft | 443 kts | 193° |
| 2026-04-20 05:01 | 35.90130 | -119.03167 | 42904 ft | 445 kts | 192° |
| 2026-04-20 05:01 | 35.83972 | -119.04141 | 42910 ft | 447 kts | 192° |
| 2026-04-20 05:02 | 35.77795 | -119.05117 | 42913 ft | 448 kts | 192° |
| 2026-04-20 05:02 | 35.71621 | -119.06089 | 42911 ft | 446 kts | 192° |
| 2026-04-20 05:03 | 35.65486 | -119.07055 | 42928 ft | 443 kts | 192° |
| 2026-04-20 05:03 | 35.59423 | -119.08009 | 42923 ft | 442 kts | 192° |
| 2026-04-20 05:04 | 35.53257 | -119.08836 | 42909 ft | 452 kts | 187° |
| 2026-04-20 05:04 | 35.46926 | -119.08103 | 42901 ft | 463 kts | 174° |
| 2026-04-20 05:05 | 35.40799 | -119.05454 | 42916 ft | 471 kts | 162° |
| 2026-04-20 05:05 | 35.34853 | -119.02129 | 42930 ft | 470 kts | 162° |
| 2026-04-20 05:06 | 35.28877 | -118.98806 | 42926 ft | 473 kts | 162° |
| 2026-04-20 05:06 | 35.22914 | -118.95484 | 42919 ft | 475 kts | 162° |
| 2026-04-20 05:07 | 35.16895 | -118.92144 | 42926 ft | 475 kts | 162° |
| 2026-04-20 05:07 | 35.10883 | -118.88809 | 42927 ft | 474 kts | 162° |
| 2026-04-20 05:08 | 35.04879 | -118.85486 | 42943 ft | 473 kts | 162° |
| 2026-04-20 05:08 | 34.98935 | -118.82200 | 42959 ft | 472 kts | 162° |
| 2026-04-20 05:09 | 34.92957 | -118.78904 | 42949 ft | 471 kts | 162° |
| 2026-04-20 05:09 | 34.86995 | -118.75619 | 42960 ft | 470 kts | 162° |
| 2026-04-20 05:10 | 34.81035 | -118.72340 | 42969 ft | 470 kts | 162° |
| 2026-04-20 05:10 | 34.75076 | -118.69070 | 42975 ft | 471 kts | 162° |
| 2026-04-20 05:11 | 34.69132 | -118.65811 | 42979 ft | 473 kts | 162° |
| 2026-04-20 05:11 | 34.63116 | -118.62518 | 42981 ft | 475 kts | 162° |
| 2026-04-20 05:12 | 34.57168 | -118.58951 | 42978 ft | 482 kts | 155° |
| 2026-04-20 05:12 | 34.51420 | -118.54829 | 42976 ft | 478 kts | 156° |
| 2026-04-20 05:13 | 34.45691 | -118.50761 | 42314 ft | 475 kts | 155° |
| 2026-04-20 05:13 | 34.42867 | -118.48735 | 41721 ft | 468 kts | 155° |
| 2026-04-20 05:13 | 34.40084 | -118.46752 | 41167 ft | 461 kts | 155° |
| 2026-04-20 05:13 | 34.37368 | -118.44830 | 40608 ft | 457 kts | 155° |
| 2026-04-20 05:14 | 34.34630 | -118.42890 | 40057 ft | 457 kts | 155° |
| 2026-04-20 05:14 | 34.31875 | -118.40933 | 39514 ft | 463 kts | 154° |
| 2026-04-20 05:14 | 34.29256 | -118.39076 | 39001 ft | 471 kts | 154° |
| 2026-04-20 05:14 | 34.28547 | -118.38573 | 38860 ft | 473 kts | 154° |
| 2026-04-20 05:15 | 34.25689 | -118.36547 | 38239 ft | 478 kts | 153° |
| 2026-04-20 05:15 | 34.22823 | -118.34514 | 37703 ft | 477 kts | 153° |
| 2026-04-20 05:15 | 34.19967 | -118.32492 | 37144 ft | 476 kts | 153° |
| 2026-04-20 05:15 | 34.17107 | -118.30473 | 36566 ft | 478 kts | 153° |
| 2026-04-20 05:16 | 34.14229 | -118.28441 | 35998 ft | 480 kts | 153° |
| 2026-04-20 05:16 | 34.11338 | -118.26399 | 35421 ft | 483 kts | 152° |
| 2026-04-20 05:16 | 34.08426 | -118.24345 | 34838 ft | 486 kts | 152° |
| 2026-04-20 05:16 | 34.05532 | -118.22306 | 34266 ft | 489 kts | 152° |
| 2026-04-20 05:17 | 34.02593 | -118.20236 | 33645 ft | 490 kts | 152° |
| 2026-04-20 05:17 | 33.99656 | -118.18168 | 33056 ft | 488 kts | 152° |
| 2026-04-20 05:17 | 33.96721 | -118.16105 | 32464 ft | 488 kts | 152° |
| 2026-04-20 05:17 | 33.93779 | -118.14039 | 31884 ft | 491 kts | 152° |
| 2026-04-20 05:18 | 33.90823 | -118.11965 | 31302 ft | 493 kts | 152° |
| 2026-04-20 05:18 | 33.87852 | -118.09880 | 30685 ft | 495 kts | 152° |
| 2026-04-20 05:18 | 33.84868 | -118.07790 | 30090 ft | 496 kts | 152° |
| 2026-04-20 05:18 | 33.81858 | -118.05801 | 29456 ft | 491 kts | 153° |
| 2026-04-20 05:19 | 33.78895 | -118.03836 | 28867 ft | 483 kts | 153° |
| 2026-04-20 05:19 | 33.75980 | -118.01886 | 28288 ft | 476 kts | 153° |
| 2026-04-20 05:19 | 33.73141 | -118.00004 | 27761 ft | 470 kts | 153° |
| 2026-04-20 05:19 | 33.70289 | -117.98130 | 27203 ft | 466 kts | 153° |
| 2026-04-20 05:20 | 33.67460 | -117.96264 | 26645 ft | 462 kts | 153° |
| 2026-04-20 05:20 | 33.64657 | -117.94408 | 26096 ft | 458 kts | 153° |
| 2026-04-20 05:20 | 33.61880 | -117.92574 | 25549 ft | 454 kts | 153° |
| 2026-04-20 05:20 | 33.59127 | -117.90762 | 25007 ft | 449 kts | 153° |
| 2026-04-20 05:21 | 33.56402 | -117.88968 | 24474 ft | 444 kts | 153° |
| 2026-04-20 05:21 | 33.53716 | -117.87197 | 23940 ft | 439 kts | 153° |
| 2026-04-20 05:21 | 33.51072 | -117.85402 | 23389 ft | 434 kts | 152° |
| 2026-04-20 05:21 | 33.48478 | -117.83597 | 22853 ft | 428 kts | 151° |
| 2026-04-20 05:22 | 33.45947 | -117.81865 | 22348 ft | 422 kts | 152° |
| 2026-04-20 05:22 | 33.43504 | -117.79939 | 21832 ft | 421 kts | 143° |
| 2026-04-20 05:22 | 33.41309 | -117.77628 | 21343 ft | 420 kts | 139° |
| 2026-04-20 05:22 | 33.39137 | -117.75303 | 20843 ft | 418 kts | 140° |
| 2026-04-20 05:23 | 33.36982 | -117.73003 | 20349 ft | 412 kts | 140° |
| 2026-04-20 05:23 | 33.34858 | -117.70736 | 19861 ft | 407 kts | 140° |
| 2026-04-20 05:23 | 33.32757 | -117.68491 | 19378 ft | 403 kts | 140° |
| 2026-04-20 05:23 | 33.30676 | -117.66272 | 18904 ft | 399 kts | 140° |
| 2026-04-20 05:24 | 33.28613 | -117.64073 | 18434 ft | 396 kts | 140° |
| 2026-04-20 05:24 | 33.26595 | -117.61924 | 17937 ft | 392 kts | 140° |
| 2026-04-20 05:24 | 33.24574 | -117.59772 | 17446 ft | 387 kts | 140° |
| 2026-04-20 05:24 | 33.22568 | -117.57654 | 16968 ft | 383 kts | 140° |
| 2026-04-20 05:25 | 33.20576 | -117.55568 | 16515 ft | 379 kts | 140° |
| 2026-04-20 05:25 | 33.18608 | -117.53498 | 16065 ft | 375 kts | 140° |
| 2026-04-20 05:25 | 33.16659 | -117.51444 | 15620 ft | 372 kts | 140° |
| 2026-04-20 05:25 | 33.14725 | -117.49410 | 15180 ft | 370 kts | 140° |
| 2026-04-20 05:26 | 33.12724 | -117.47510 | 14740 ft | 366 kts | 146° |
| 2026-04-20 05:26 | 33.10650 | -117.45811 | 14309 ft | 354 kts | 146° |
| 2026-04-20 05:26 | 33.08694 | -117.44178 | 13898 ft | 333 kts | 146° |
| 2026-04-20 05:26 | 33.06878 | -117.42653 | 13493 ft | 315 kts | 146° |
| 2026-04-20 05:27 | 33.06368 | -117.42227 | 13383 ft | 311 kts | 146° |
| 2026-04-20 05:27 | 33.05479 | -117.41487 | 13200 ft | 303 kts | 146° |
| 2026-04-20 05:27 | 33.03791 | -117.40083 | 12843 ft | 289 kts | 146° |
| 2026-04-20 05:27 | 33.02182 | -117.38730 | 12506 ft | 278 kts | 146° |
| 2026-04-20 05:28 | 33.00632 | -117.37426 | 12192 ft | 268 kts | 146° |
| 2026-04-20 05:28 | 32.99127 | -117.36164 | 11881 ft | 263 kts | 146° |
| 2026-04-20 05:28 | 32.97633 | -117.34913 | 11572 ft | 263 kts | 146° |
| 2026-04-20 05:28 | 32.96133 | -117.33657 | 11264 ft | 265 kts | 146° |
| 2026-04-20 05:29 | 32.94623 | -117.32392 | 10952 ft | 266 kts | 146° |
| 2026-04-20 05:29 | 32.93108 | -117.31123 | 10562 ft | 267 kts | 146° |
| 2026-04-20 05:29 | 32.91611 | -117.29870 | 10109 ft | 266 kts | 146° |
| 2026-04-20 05:29 | 32.90101 | -117.28612 | 9620 ft | 264 kts | 146° |
| 2026-04-20 05:30 | 32.88599 | -117.27365 | 9109 ft | 262 kts | 146° |
| 2026-04-20 05:30 | 32.87108 | -117.26127 | 8611 ft | 260 kts | 147° |
| 2026-04-20 05:30 | 32.85729 | -117.24760 | 8099 ft | 261 kts | 130° |
| 2026-04-20 05:30 | 32.84849 | -117.22871 | 7615 ft | 261 kts | 117° |
| 2026-04-20 05:31 | 32.84128 | -117.20893 | 7142 ft | 260 kts | 116° |
| 2026-04-20 05:31 | 32.83364 | -117.18958 | 6673 ft | 257 kts | 120° |
| 2026-04-20 05:31 | 32.82527 | -117.17085 | 6175 ft | 256 kts | 121° |
| 2026-04-20 05:31 | 32.81719 | -117.15271 | 5994 ft | 244 kts | 120° |
| 2026-04-20 05:32 | 32.80953 | -117.13499 | 5987 ft | 241 kts | 120° |
| 2026-04-20 05:32 | 32.80174 | -117.11703 | 5991 ft | 246 kts | 120° |
| 2026-04-20 05:32 | 32.79413 | -117.09944 | 5987 ft | 232 kts | 120° |
| 2026-04-20 05:32 | 32.78690 | -117.08281 | 5982 ft | 222 kts | 121° |
| 2026-04-20 05:33 | 32.77983 | -117.06645 | 5981 ft | 224 kts | 118° |
| 2026-04-20 05:33 | 32.77503 | -117.04865 | 5986 ft | 228 kts | 108° |
| 2026-04-20 05:33 | 32.77072 | -117.03044 | 5989 ft | 230 kts | 110° |
| 2026-04-20 05:33 | 32.76618 | -117.01218 | 5991 ft | 231 kts | 110° |
| 2026-04-20 05:34 | 32.76176 | -116.99417 | 5992 ft | 230 kts | 110° |
| 2026-04-20 05:34 | 32.75660 | -116.97635 | 5982 ft | 226 kts | 122° |
| 2026-04-20 05:34 | 32.73259 | -116.95529 | 5983 ft | 217 kts | 168° |
| 2026-04-20 05:35 | 32.71762 | -116.95509 | 5980 ft | 217 kts | 191° |
| 2026-04-20 05:35 | 32.70380 | -116.96208 | 5978 ft | 219 kts | 213° |
| 2026-04-20 05:35 | 32.69320 | -116.97538 | 5731 ft | 232 kts | 236° |
| 2026-04-20 05:35 | 32.68819 | -116.99388 | 5264 ft | 242 kts | 262° |
| 2026-04-20 05:36 | 32.69035 | -117.01363 | 4843 ft | 234 kts | 283° |
| 2026-04-20 05:36 | 32.69484 | -117.03104 | 4349 ft | 215 kts | 285° |
| 2026-04-20 05:36 | 32.69905 | -117.04758 | 3819 ft | 205 kts | 285° |
| 2026-04-20 05:36 | 32.70290 | -117.06330 | 3380 ft | 179 kts | 285° |
| 2026-04-20 05:37 | 32.70607 | -117.07653 | 2807 ft | 160 kts | 284° |
| 2026-04-20 05:37 | 32.70884 | -117.08870 | 2388 ft | 145 kts | 284° |
| 2026-04-20 05:37 | 32.71149 | -117.10004 | 1805 ft | 141 kts | 286° |
| 2026-04-20 05:37 | 32.71430 | -117.11077 | 1430 ft | 130 kts | 286° |
| 2026-04-20 05:38 | 32.71667 | -117.12080 | 1181 ft | 123 kts | 284° |
| 2026-04-20 05:38 | 32.71887 | -117.13035 | 1013 ft | 118 kts | 285° |
| 2026-04-20 05:38 | 32.72118 | -117.13962 | 821 ft | 116 kts | 287° |
| 2026-04-20 05:38 | 32.72363 | -117.14874 | 593 ft | 116 kts | 286° |
| 2026-04-20 05:39 | 32.72587 | -117.15771 | 432 ft | 112 kts | 285° |
| 2026-04-20 05:39 | 32.72783 | -117.16634 | 284 ft | 109 kts | 285° |
| 2026-04-20 05:39 | 32.72998 | -117.17504 | 105 ft | 109 kts | 286° |
| 2026-04-20 05:39 | 32.73216 | -117.18331 | 27 ft | 101 kts | 286° |
| 2026-04-20 05:40 | 32.73368 | -117.18998 | 20 ft | 51 kts | 284° |
| 2026-04-20 05:40 | 32.73367 | -117.19137 | 19 ft | 13 kts | 230° |
| 2026-04-20 05:40 | 32.73347 | -117.19153 | 19 ft | 0 kts | 207° |
| 2026-04-20 05:41 | 32.73342 | -117.19156 | 19 ft | 6 kts | 201° |
| 2026-04-20 05:41 | 32.73280 | -117.19081 | 20 ft | 24 kts | 105° |
| 2026-04-20 05:42 | 32.73240 | -117.18884 | 20 ft | 18 kts | 73° |
| 2026-04-20 05:42 | 32.73249 | -117.18870 | 22 ft | 0 kts | 43° |
| 2026-04-20 05:46 | 32.73258 | -117.18861 | 21 ft | 7 kts | 38° |
| 2026-04-20 05:47 | 32.73356 | -117.18821 | 18 ft | 16 kts | 9° |
| 2026-04-20 05:47 | 32.73415 | -117.18772 | 21 ft | 15 kts | 77° |
| 2026-04-20 05:47 | 32.73384 | -117.18613 | 25 ft | 24 kts | 108° |
| 2026-04-20 05:47 | 32.73336 | -117.18412 | 24 ft | 3 kts | 105° |
| 2026-04-20 05:48 | 32.73336 | -117.18411 | 24 ft | 0 kts | 105° |
| 2026-04-20 05:48 | 32.73322 | -117.18352 | 24 ft | 15 kts | 106° |
| 2026-04-20 05:49 | 32.73283 | -117.18196 | 26 ft | 22 kts | 106° |
| 2026-04-20 05:49 | 32.73245 | -117.18023 | 26 ft | 9 kts | 90° |
| 2026-04-20 05:49 | 32.73292 | -117.17972 | 27 ft | 11 kts | 15° |
| 2026-04-20 05:49 | 32.73383 | -117.17941 | 24 ft | 15 kts | 15° |
| 2026-04-20 05:50 | 32.73392 | -117.17939 | 24 ft | 0 kts | 13° |
| 2026-04-20 05:50 | 32.73400 | -117.17937 | 26 ft | 5 kts | 6° |
| 2026-04-20 05:50 | 32.73428 | -117.17952 | 26 ft | 4 kts | 312° |
| 2026-04-20 05:50 | 32.73433 | -117.17962 | 25 ft | 0 kts | 299° |
| 2026-04-20 05:51 | 32.73434 | -117.17964 | 24 ft | 0 kts | 299° |